»·PEaware :: WAT234 KPSP-KOXR

WAT234 :: KPSP-KOXR

FLIGHT INFORMATION

Flight Status: Arrived
Operator:
Walker Air Transport
More flights by this operator :: More flights under this callsign
Pilot: Eduardo Elias G. (24838)
Aircraft: SOCATA TBM-900
(TBM9)
More flights by this aircraft type
Origin: KPSP Palm Springs Intl
United States
Destination: KOXR Oxnard
United States
More flights between these airports :: More routes between these airports
Route: +CATH1 PSP V388 DEWAY POM VNY V186 FIM
File this flight plan on PilotEdge
Remarks: Tec route PSPP15
Altitude:
(Current/Filed)
12,000ft
Speed:
(Current/Filed)
220kts
Departed: 23-Aug-20 08:33 PM
Arrived: 23-Aug-20 09:42 PM
Distance/Time
Traveled:
136nm/1:09
Distance/Time
To Go:
Arrived

Flight Plot

Page will automatically refresh every two minutes.

Flight plan parsing failed; only flown route is shown


Map Options




Map Legend


Flown Route
Filed Route
Departure Airport
Arrival Airport
Navaid (VOR, NDB)
Fix

Horizontal Profiles

Position Reports

Time Latitude Longitude Heading Altitude Ground
Speed
23-Aug-20 20:12 33.825782 -116.508328 272 429ft 0kts
23-Aug-20 20:13 33.825782 -116.508328 272 429ft 0kts
23-Aug-20 20:14 33.825782 -116.508328 272 429ft 0kts
23-Aug-20 20:15 33.825782 -116.508328 272 429ft 0kts
23-Aug-20 20:16 33.825782 -116.508328 272 429ft 0kts
23-Aug-20 20:17 33.825782 -116.508328 272 429ft 0kts
23-Aug-20 20:18 33.825782 -116.508328 272 429ft 0kts
23-Aug-20 20:19 33.825782 -116.508328 272 429ft 0kts
23-Aug-20 20:20 33.825782 -116.508328 272 429ft 0kts
23-Aug-20 20:21 33.825782 -116.508328 272 429ft 0kts
23-Aug-20 20:22 33.825782 -116.508328 272 429ft 0kts
23-Aug-20 20:23 33.825782 -116.508328 272 429ft 0kts
23-Aug-20 20:24 33.825782 -116.508328 272 429ft 0kts
23-Aug-20 20:25 33.825782 -116.508328 272 429ft 0kts
23-Aug-20 20:26 33.825782 -116.508328 272 429ft 0kts
23-Aug-20 20:27 33.825782 -116.508328 272 429ft 0kts
23-Aug-20 20:28 33.825338 -116.506772 102 429ft 1kts
23-Aug-20 20:29 33.822173 -116.503024 142 429ft 25kts
23-Aug-20 20:30 33.818513 -116.499360 89 429ft 0kts
23-Aug-20 20:31 33.818707 -116.498041 21 429ft 7kts
23-Aug-20 20:32 33.835225 -116.515494 315 1417ft 116kts
23-Aug-20 20:33 33.864943 -116.542018 323 3624ft 131kts
23-Aug-20 20:34 33.897956 -116.568349 327 5818ft 138kts
23-Aug-20 20:35 33.908997 -116.530518 128 6775ft 216kts
23-Aug-20 20:36 33.882051 -116.465595 112 8900ft 197kts
23-Aug-20 20:37 33.859482 -116.404961 119 11093ft 183kts
23-Aug-20 20:48 33.825790 -116.508619 271 429ft 0kts
23-Aug-20 20:49 33.825790 -116.508619 271 429ft 0kts
23-Aug-20 20:50 33.825790 -116.508619 271 429ft 0kts
23-Aug-20 20:51 33.825790 -116.508619 271 429ft 0kts
23-Aug-20 20:52 33.825790 -116.508619 271 429ft 0kts
23-Aug-20 20:53 33.825790 -116.508619 271 429ft 0kts
23-Aug-20 20:54 33.825761 -116.508781 227 429ft 0kts
23-Aug-20 20:55 33.824779 -116.505396 144 429ft 18kts
23-Aug-20 20:56 33.818754 -116.499989 142 429ft 11kts
23-Aug-20 20:57 33.822771 -116.501508 323 429ft 94kts
23-Aug-20 20:58 33.848818 -116.526566 320 2358ft 128kts
23-Aug-20 20:59 33.877429 -116.554168 318 4470ft 135kts
23-Aug-20 21:00 33.911203 -116.560961 67 6826ft 149kts
23-Aug-20 21:01 33.898830 -116.514549 114 9286ft 144kts
23-Aug-20 21:02 33.883100 -116.468270 117 11557ft 141kts
23-Aug-20 21:03 33.861084 -116.408929 120 12036ft 228kts
23-Aug-20 21:04 33.827707 -116.330382 119 12004ft 259kts
23-Aug-20 21:05 33.793978 -116.251445 121 12000ft 262kts
23-Aug-20 21:06 33.740159 -116.269089 263 11987ft 278kts
23-Aug-20 21:07 33.782560 -116.349308 321 12008ft 292kts
23-Aug-20 21:08 33.848292 -116.409743 321 12002ft 292kts
23-Aug-20 21:09 33.885784 -116.491652 283 12003ft 285kts
23-Aug-20 21:10 33.909473 -116.584962 283 12002ft 286kts
23-Aug-20 21:11 33.933173 -116.678581 283 12001ft 286kts
23-Aug-20 21:12 33.952686 -116.770945 274 12003ft 283kts
23-Aug-20 21:13 33.964631 -116.864892 274 12002ft 283kts
23-Aug-20 21:14 33.976579 -116.959081 274 12002ft 284kts
23-Aug-20 21:15 33.988504 -117.053682 274 12003ft 284kts
23-Aug-20 21:16 34.000929 -117.153058 275 11575ft 288kts
23-Aug-20 21:17 34.013281 -117.252385 276 10029ft 287kts
23-Aug-20 21:18 34.025574 -117.351821 277 8480ft 292kts
23-Aug-20 21:19 34.037681 -117.450344 277 7888ft 276kts
23-Aug-20 21:20 34.048947 -117.542752 277 7909ft 268kts
23-Aug-20 21:21 34.059974 -117.633773 277 7909ft 268kts
23-Aug-20 21:22 34.071012 -117.725369 276 7909ft 268kts
23-Aug-20 21:23 34.084233 -117.815139 282 7912ft 269kts
23-Aug-20 21:24 34.103191 -117.906007 282 7953ft 268kts
23-Aug-20 21:25 34.122017 -117.996669 282 7989ft 268kts
23-Aug-20 21:26 34.140896 -118.087975 282 7999ft 268kts
23-Aug-20 21:27 34.159474 -118.178193 282 7998ft 264kts
23-Aug-20 21:28 34.177956 -118.268290 282 7999ft 264kts
23-Aug-20 21:29 34.196244 -118.357809 282 7999ft 263kts
23-Aug-20 21:30 34.214671 -118.447530 285 8033ft 262kts
23-Aug-20 21:31 34.233142 -118.531775 262 7519ft 278kts
23-Aug-20 21:32 34.223604 -118.626829 262 6495ft 258kts
23-Aug-20 21:33 34.214388 -118.716248 261 5999ft 250kts
23-Aug-20 21:34 34.205492 -118.803028 261 6000ft 245kts
23-Aug-20 21:35 34.196528 -118.891605 263 6000ft 252kts
23-Aug-20 21:37 34.199584 -118.982988 266 5571ft 249kts
23-Aug-20 21:38 34.200314 -119.059019 271 4313ft 185kts
23-Aug-20 21:39 34.199955 -119.121159 268 3099ft 127kts
23-Aug-20 21:40 34.199990 -119.155689 271 1481ft 95kts
23-Aug-20 21:41 34.200737 -119.188829 270 210ft 99kts
23-Aug-20 21:42 34.200495 -119.210886 245 40ft 28kts
23-Aug-20 21:43 34.199863 -119.211463 97 40ft 12kts
23-Aug-20 21:44 34.199798 -119.205411 90 40ft 16kts
23-Aug-20 21:45 34.199486 -119.199775 125 40ft 11kts
23-Aug-20 21:46 34.198952 -119.198582 96 40ft 0kts
23-Aug-20 21:47 34.198952 -119.198582 96 40ft 0kts
23-Aug-20 21:48 34.198952 -119.198582 96 40ft 0kts

Navigation Log

Ident Type
Flight plan parsing failed, navigation log unavailable